sensor_id;sensor_type;location;lat;lon;timestamp;P1;durP1;ratioP1;P2;durP2;ratioP2
51724;SDS011;37801;53.224;6.552;2023-05-21T00:00:23;5.18;;;2.65;;
51724;SDS011;37801;53.224;6.552;2023-05-21T00:02:49;4.53;;;2.72;;
51724;SDS011;37801;53.224;6.552;2023-05-21T00:05:15;5.32;;;3.03;;
51724;SDS011;37801;53.224;6.552;2023-05-21T00:07:42;3.67;;;2.72;;
51724;SDS011;37801;53.224;6.552;2023-05-21T00:10:10;4.78;;;2.92;;
51724;SDS011;37801;53.224;6.552;2023-05-21T00:12:36;6.22;;;2.92;;
51724;SDS011;37801;53.224;6.552;2023-05-21T00:15:02;5.57;;;3.30;;
51724;SDS011;37801;53.224;6.552;2023-05-21T00:17:28;5.03;;;3.10;;
51724;SDS011;37801;53.224;6.552;2023-05-21T00:19:54;5.18;;;3.10;;
51724;SDS011;37801;53.224;6.552;2023-05-21T00:22:21;4.68;;;2.92;;
51724;SDS011;37801;53.224;6.552;2023-05-21T00:24:47;5.38;;;3.00;;
51724;SDS011;37801;53.224;6.552;2023-05-21T00:27:17;4.97;;;2.80;;
51724;SDS011;37801;53.224;6.552;2023-05-21T00:29:43;8.60;;;2.92;;
51724;SDS011;37801;53.224;6.552;2023-05-21T00:32:09;7.55;;;3.10;;
51724;SDS011;37801;53.224;6.552;2023-05-21T00:34:35;6.53;;;3.28;;
51724;SDS011;37801;53.224;6.552;2023-05-21T00:37:02;5.03;;;2.55;;
51724;SDS011;37801;53.224;6.552;2023-05-21T00:39:28;5.22;;;3.15;;
51724;SDS011;37801;53.224;6.552;2023-05-21T00:41:54;4.95;;;2.80;;
51724;SDS011;37801;53.224;6.552;2023-05-21T00:44:21;6.65;;;3.38;;
51724;SDS011;37801;53.224;6.552;2023-05-21T00:46:48;5.15;;;3.13;;
51724;SDS011;37801;53.224;6.552;2023-05-21T00:49:18;7.10;;;3.10;;
51724;SDS011;37801;53.224;6.552;2023-05-21T00:51:46;7.85;;;2.83;;
51724;SDS011;37801;53.224;6.552;2023-05-21T00:54:12;8.35;;;3.38;;
51724;SDS011;37801;53.224;6.552;2023-05-21T00:56:38;6.78;;;3.15;;
51724;SDS011;37801;53.224;6.552;2023-05-21T00:59:05;4.72;;;2.88;;
51724;SDS011;37801;53.224;6.552;2023-05-21T01:01:31;4.57;;;2.42;;
51724;SDS011;37801;53.224;6.552;2023-05-21T01:04:01;5.05;;;3.10;;
51724;SDS011;37801;53.224;6.552;2023-05-21T01:06:27;6.22;;;2.67;;
51724;SDS011;37801;53.224;6.552;2023-05-21T01:08:56;6.85;;;3.22;;
51724;SDS011;37801;53.224;6.552;2023-05-21T01:11:34;5.38;;;3.00;;
51724;SDS011;37801;53.224;6.552;2023-05-21T01:14:02;5.97;;;3.22;;
51724;SDS011;37801;53.224;6.552;2023-05-21T01:16:29;5.47;;;2.97;;
51724;SDS011;37801;53.224;6.552;2023-05-21T01:18:56;4.28;;;2.63;;
51724;SDS011;37801;53.224;6.552;2023-05-21T01:21:23;5.05;;;2.75;;
51724;SDS011;37801;53.224;6.552;2023-05-21T01:23:52;8.80;;;3.60;;
51724;SDS011;37801;53.224;6.552;2023-05-21T01:26:18;6.13;;;3.20;;
51724;SDS011;37801;53.224;6.552;2023-05-21T01:28:44;8.80;;;3.75;;
51724;SDS011;37801;53.224;6.552;2023-05-21T01:31:22;5.95;;;3.20;;
51724;SDS011;37801;53.224;6.552;2023-05-21T01:33:51;5.20;;;3.30;;
51724;SDS011;37801;53.224;6.552;2023-05-21T01:36:19;5.43;;;3.22;;
51724;SDS011;37801;53.224;6.552;2023-05-21T01:38:52;6.97;;;3.58;;
51724;SDS011;37801;53.224;6.552;2023-05-21T01:41:22;8.00;;;3.63;;
51724;SDS011;37801;53.224;6.552;2023-05-21T01:43:49;6.85;;;3.08;;
51724;SDS011;37801;53.224;6.552;2023-05-21T01:46:16;5.82;;;3.22;;
51724;SDS011;37801;53.224;6.552;2023-05-21T01:48:44;5.30;;;3.47;;
51724;SDS011;37801;53.224;6.552;2023-05-21T01:51:11;5.70;;;3.63;;
51724;SDS011;37801;53.224;6.552;2023-05-21T01:53:37;6.28;;;3.55;;
51724;SDS011;37801;53.224;6.552;2023-05-21T01:56:05;5.88;;;3.58;;
51724;SDS011;37801;53.224;6.552;2023-05-21T01:58:31;6.55;;;3.70;;
51724;SDS011;37801;53.224;6.552;2023-05-21T02:00:57;6.60;;;3.58;;
51724;SDS011;37801;53.224;6.552;2023-05-21T02:03:24;5.47;;;3.63;;
51724;SDS011;37801;53.224;6.552;2023-05-21T02:05:51;7.22;;;3.53;;
51724;SDS011;37801;53.224;6.552;2023-05-21T02:08:17;6.93;;;4.07;;
51724;SDS011;37801;53.224;6.552;2023-05-21T02:10:44;7.70;;;3.78;;
51724;SDS011;37801;53.224;6.552;2023-05-21T02:13:10;6.20;;;3.47;;
51724;SDS011;37801;53.224;6.552;2023-05-21T02:15:36;5.45;;;3.78;;
51724;SDS011;37801;53.224;6.552;2023-05-21T02:18:02;5.57;;;3.90;;
51724;SDS011;37801;53.224;6.552;2023-05-21T02:20:29;6.63;;;4.00;;
51724;SDS011;37801;53.224;6.552;2023-05-21T02:22:55;6.40;;;4.20;;
51724;SDS011;37801;53.224;6.552;2023-05-21T02:25:21;7.05;;;4.18;;
51724;SDS011;37801;53.224;6.552;2023-05-21T02:27:47;7.05;;;4.22;;
51724;SDS011;37801;53.224;6.552;2023-05-21T02:30:17;8.15;;;4.72;;
51724;SDS011;37801;53.224;6.552;2023-05-21T02:32:43;7.50;;;4.10;;
51724;SDS011;37801;53.224;6.552;2023-05-21T02:35:12;7.22;;;4.22;;
51724;SDS011;37801;53.224;6.552;2023-05-21T02:37:39;7.38;;;4.43;;
51724;SDS011;37801;53.224;6.552;2023-05-21T02:40:05;6.50;;;4.25;;
51724;SDS011;37801;53.224;6.552;2023-05-21T02:42:33;6.60;;;4.20;;
51724;SDS011;37801;53.224;6.552;2023-05-21T02:45:01;8.10;;;4.22;;
51724;SDS011;37801;53.224;6.552;2023-05-21T02:47:28;7.40;;;4.32;;
51724;SDS011;37801;53.224;6.552;2023-05-21T02:49:54;9.73;;;4.40;;
51724;SDS011;37801;53.224;6.552;2023-05-21T02:52:20;10.23;;;4.40;;
51724;SDS011;37801;53.224;6.552;2023-05-21T02:54:46;7.57;;;4.45;;
51724;SDS011;37801;53.224;6.552;2023-05-21T02:57:12;9.18;;;4.78;;
51724;SDS011;37801;53.224;6.552;2023-05-21T02:59:38;8.27;;;4.55;;
51724;SDS011;37801;53.224;6.552;2023-05-21T03:02:05;7.75;;;4.70;;
51724;SDS011;37801;53.224;6.552;2023-05-21T03:04:31;8.07;;;4.50;;
51724;SDS011;37801;53.224;6.552;2023-05-21T03:07:03;9.70;;;5.50;;
51724;SDS011;37801;53.224;6.552;2023-05-21T03:09:29;9.60;;;5.43;;
51724;SDS011;37801;53.224;6.552;2023-05-21T03:11:56;10.05;;;5.50;;
51724;SDS011;37801;53.224;6.552;2023-05-21T03:14:22;7.88;;;5.07;;
51724;SDS011;37801;53.224;6.552;2023-05-21T03:16:48;7.55;;;5.22;;
51724;SDS011;37801;53.224;6.552;2023-05-21T03:19:15;9.43;;;5.55;;
51724;SDS011;37801;53.224;6.552;2023-05-21T03:21:41;8.43;;;5.00;;
51724;SDS011;37801;53.224;6.552;2023-05-21T03:24:08;10.50;;;4.55;;
51724;SDS011;37801;53.224;6.552;2023-05-21T03:26:37;11.30;;;5.38;;
51724;SDS011;37801;53.224;6.552;2023-05-21T03:29:03;8.15;;;4.68;;
51724;SDS011;37801;53.224;6.552;2023-05-21T03:31:30;9.35;;;5.35;;
51724;SDS011;37801;53.224;6.552;2023-05-21T03:33:56;8.55;;;5.10;;
51724;SDS011;37801;53.224;6.552;2023-05-21T03:36:22;10.15;;;5.38;;
51724;SDS011;37801;53.224;6.552;2023-05-21T03:38:48;9.57;;;5.15;;
51724;SDS011;37801;53.224;6.552;2023-05-21T03:41:14;8.93;;;5.00;;
51724;SDS011;37801;53.224;6.552;2023-05-21T03:43:40;9.38;;;5.22;;
51724;SDS011;37801;53.224;6.552;2023-05-21T03:46:06;7.97;;;4.60;;
51724;SDS011;37801;53.224;6.552;2023-05-21T03:48:33;7.55;;;4.47;;
51724;SDS011;37801;53.224;6.552;2023-05-21T03:50:59;7.18;;;4.30;;
51724;SDS011;37801;53.224;6.552;2023-05-21T03:53:25;8.38;;;4.63;;
51724;SDS011;37801;53.224;6.552;2023-05-21T03:55:51;9.45;;;4.82;;
51724;SDS011;37801;53.224;6.552;2023-05-21T03:58:22;13.20;;;5.03;;
51724;SDS011;37801;53.224;6.552;2023-05-21T04:00:48;9.30;;;4.55;;
51724;SDS011;37801;53.224;6.552;2023-05-21T04:03:15;7.95;;;4.60;;
51724;SDS011;37801;53.224;6.552;2023-05-21T04:05:42;9.77;;;5.00;;
51724;SDS011;37801;53.224;6.552;2023-05-21T04:08:08;8.95;;;4.60;;
51724;SDS011;37801;53.224;6.552;2023-05-21T04:10:34;7.88;;;4.43;;
51724;SDS011;37801;53.224;6.552;2023-05-21T04:13:00;9.32;;;4.30;;
51724;SDS011;37801;53.224;6.552;2023-05-21T04:15:26;10.85;;;4.40;;
51724;SDS011;37801;53.224;6.552;2023-05-21T04:17:52;6.90;;;4.05;;
51724;SDS011;37801;53.224;6.552;2023-05-21T04:20:19;7.55;;;3.90;;
51724;SDS011;37801;53.224;6.552;2023-05-21T04:22:45;8.38;;;4.28;;
51724;SDS011;37801;53.224;6.552;2023-05-21T04:25:11;9.88;;;4.68;;
51724;SDS011;37801;53.224;6.552;2023-05-21T04:27:37;8.57;;;4.10;;
51724;SDS011;37801;53.224;6.552;2023-05-21T04:30:04;7.20;;;3.95;;
51724;SDS011;37801;53.224;6.552;2023-05-21T04:32:30;9.02;;;3.92;;
51724;SDS011;37801;53.224;6.552;2023-05-21T04:34:58;10.73;;;3.92;;
51724;SDS011;37801;53.224;6.552;2023-05-21T04:37:28;6.15;;;3.65;;
51724;SDS011;37801;53.224;6.552;2023-05-21T04:39:58;8.10;;;3.80;;
51724;SDS011;37801;53.224;6.552;2023-05-21T04:42:25;7.57;;;3.88;;
51724;SDS011;37801;53.224;6.552;2023-05-21T04:44:51;9.18;;;4.00;;
51724;SDS011;37801;53.224;6.552;2023-05-21T04:47:19;6.93;;;3.30;;
51724;SDS011;37801;53.224;6.552;2023-05-21T04:49:45;10.20;;;3.67;;
51724;SDS011;37801;53.224;6.552;2023-05-21T04:52:12;8.40;;;3.60;;
51724;SDS011;37801;53.224;6.552;2023-05-21T04:54:38;8.48;;;3.63;;
51724;SDS011;37801;53.224;6.552;2023-05-21T04:57:06;8.30;;;3.85;;
51724;SDS011;37801;53.224;6.552;2023-05-21T04:59:32;7.10;;;3.08;;
51724;SDS011;37801;53.224;6.552;2023-05-21T05:01:58;6.82;;;3.30;;
51724;SDS011;37801;53.224;6.552;2023-05-21T05:04:25;7.60;;;3.50;;
51724;SDS011;37801;53.224;6.552;2023-05-21T05:06:51;7.03;;;3.47;;
51724;SDS011;37801;53.224;6.552;2023-05-21T05:09:17;8.52;;;3.50;;
51724;SDS011;37801;53.224;6.552;2023-05-21T05:11:45;6.88;;;3.28;;
51724;SDS011;37801;53.224;6.552;2023-05-21T05:14:11;7.75;;;3.92;;
51724;SDS011;37801;53.224;6.552;2023-05-21T05:16:37;6.93;;;3.50;;
51724;SDS011;37801;53.224;6.552;2023-05-21T05:19:03;5.15;;;2.80;;
51724;SDS011;37801;53.224;6.552;2023-05-21T05:21:30;6.35;;;3.38;;
51724;SDS011;37801;53.224;6.552;2023-05-21T05:23:57;8.65;;;3.60;;
51724;SDS011;37801;53.224;6.552;2023-05-21T05:26:23;6.22;;;3.50;;
51724;SDS011;37801;53.224;6.552;2023-05-21T05:28:49;6.15;;;2.97;;
51724;SDS011;37801;53.224;6.552;2023-05-21T05:31:15;8.77;;;3.55;;
51724;SDS011;37801;53.224;6.552;2023-05-21T05:33:41;6.85;;;3.20;;
51724;SDS011;37801;53.224;6.552;2023-05-21T05:36:07;7.07;;;3.55;;
51724;SDS011;37801;53.224;6.552;2023-05-21T05:38:34;6.95;;;3.38;;
51724;SDS011;37801;53.224;6.552;2023-05-21T05:41:00;8.63;;;3.20;;
51724;SDS011;37801;53.224;6.552;2023-05-21T05:43:26;8.93;;;3.72;;
51724;SDS011;37801;53.224;6.552;2023-05-21T05:45:52;9.35;;;3.50;;
51724;SDS011;37801;53.224;6.552;2023-05-21T05:48:18;7.57;;;3.75;;
51724;SDS011;37801;53.224;6.552;2023-05-21T05:50:44;9.50;;;3.83;;
51724;SDS011;37801;53.224;6.552;2023-05-21T05:53:11;6.63;;;3.42;;
51724;SDS011;37801;53.224;6.552;2023-05-21T05:55:39;9.80;;;3.95;;
51724;SDS011;37801;53.224;6.552;2023-05-21T05:58:06;6.00;;;3.33;;
51724;SDS011;37801;53.224;6.552;2023-05-21T06:00:32;7.55;;;3.75;;
51724;SDS011;37801;53.224;6.552;2023-05-21T06:02:58;9.45;;;3.45;;
51724;SDS011;37801;53.224;6.552;2023-05-21T06:05:24;6.93;;;3.50;;
51724;SDS011;37801;53.224;6.552;2023-05-21T06:07:50;7.43;;;3.42;;
51724;SDS011;37801;53.224;6.552;2023-05-21T06:10:17;6.47;;;3.15;;
51724;SDS011;37801;53.224;6.552;2023-05-21T06:12:44;6.03;;;3.40;;
51724;SDS011;37801;53.224;6.552;2023-05-21T06:15:10;7.65;;;3.33;;
51724;SDS011;37801;53.224;6.552;2023-05-21T06:17:39;6.32;;;3.53;;
51724;SDS011;37801;53.224;6.552;2023-05-21T06:20:07;9.45;;;3.60;;
51724;SDS011;37801;53.224;6.552;2023-05-21T06:22:33;7.68;;;3.83;;
51724;SDS011;37801;53.224;6.552;2023-05-21T06:25:01;9.32;;;3.70;;
51724;SDS011;37801;53.224;6.552;2023-05-21T06:27:27;6.90;;;3.45;;
51724;SDS011;37801;53.224;6.552;2023-05-21T06:29:53;7.50;;;3.30;;
51724;SDS011;37801;53.224;6.552;2023-05-21T06:32:19;8.20;;;3.60;;
51724;SDS011;37801;53.224;6.552;2023-05-21T06:34:46;10.18;;;4.00;;
51724;SDS011;37801;53.224;6.552;2023-05-21T06:37:13;6.50;;;3.38;;
51724;SDS011;37801;53.224;6.552;2023-05-21T06:39:39;6.50;;;3.45;;
51724;SDS011;37801;53.224;6.552;2023-05-21T06:42:05;8.10;;;3.20;;
51724;SDS011;37801;53.224;6.552;2023-05-21T06:44:31;8.18;;;3.75;;
51724;SDS011;37801;53.224;6.552;2023-05-21T06:46:58;9.98;;;4.07;;
51724;SDS011;37801;53.224;6.552;2023-05-21T06:49:24;7.70;;;3.65;;
51724;SDS011;37801;53.224;6.552;2023-05-21T06:51:50;8.05;;;3.90;;
51724;SDS011;37801;53.224;6.552;2023-05-21T06:54:16;8.60;;;3.55;;
51724;SDS011;37801;53.224;6.552;2023-05-21T06:56:42;8.40;;;3.90;;
51724;SDS011;37801;53.224;6.552;2023-05-21T06:59:08;6.78;;;3.28;;
51724;SDS011;37801;53.224;6.552;2023-05-21T07:01:35;10.23;;;4.15;;
51724;SDS011;37801;53.224;6.552;2023-05-21T07:04:01;6.68;;;3.63;;
51724;SDS011;37801;53.224;6.552;2023-05-21T07:06:27;9.40;;;3.60;;
51724;SDS011;37801;53.224;6.552;2023-05-21T07:08:53;5.70;;;3.05;;
51724;SDS011;37801;53.224;6.552;2023-05-21T07:11:19;7.13;;;3.20;;
51724;SDS011;37801;53.224;6.552;2023-05-21T07:13:46;8.35;;;3.38;;
51724;SDS011;37801;53.224;6.552;2023-05-21T07:16:12;9.77;;;4.07;;
51724;SDS011;37801;53.224;6.552;2023-05-21T07:18:38;7.03;;;3.40;;
51724;SDS011;37801;53.224;6.552;2023-05-21T07:21:04;7.10;;;3.17;;
51724;SDS011;37801;53.224;6.552;2023-05-21T07:23:30;10.57;;;4.18;;
51724;SDS011;37801;53.224;6.552;2023-05-21T07:25:56;6.75;;;3.00;;
51724;SDS011;37801;53.224;6.552;2023-05-21T07:28:23;7.38;;;3.67;;
51724;SDS011;37801;53.224;6.552;2023-05-21T07:30:49;5.97;;;3.20;;
51724;SDS011;37801;53.224;6.552;2023-05-21T07:33:15;10.07;;;3.20;;
51724;SDS011;37801;53.224;6.552;2023-05-21T07:35:41;6.78;;;2.88;;
51724;SDS011;37801;53.224;6.552;2023-05-21T07:38:07;4.95;;;2.97;;
51724;SDS011;37801;53.224;6.552;2023-05-21T07:40:33;9.18;;;3.35;;
51724;SDS011;37801;53.224;6.552;2023-05-21T07:42:59;7.43;;;2.95;;
51724;SDS011;37801;53.224;6.552;2023-05-21T07:45:25;7.32;;;3.67;;
51724;SDS011;37801;53.224;6.552;2023-05-21T07:47:51;9.88;;;3.55;;
51724;SDS011;37801;53.224;6.552;2023-05-21T07:50:18;10.82;;;3.05;;
51724;SDS011;37801;53.224;6.552;2023-05-21T07:52:44;7.03;;;3.33;;
51724;SDS011;37801;53.224;6.552;2023-05-21T07:55:10;7.57;;;3.42;;
51724;SDS011;37801;53.224;6.552;2023-05-21T07:57:36;6.60;;;3.20;;
51724;SDS011;37801;53.224;6.552;2023-05-21T08:00:02;8.32;;;3.38;;
51724;SDS011;37801;53.224;6.552;2023-05-21T08:02:32;6.63;;;3.38;;
51724;SDS011;37801;53.224;6.552;2023-05-21T08:04:58;7.32;;;3.53;;
51724;SDS011;37801;53.224;6.552;2023-05-21T08:07:25;6.82;;;3.40;;
51724;SDS011;37801;53.224;6.552;2023-05-21T08:09:52;10.38;;;3.22;;
51724;SDS011;37801;53.224;6.552;2023-05-21T08:12:18;9.07;;;3.88;;
51724;SDS011;37801;53.224;6.552;2023-05-21T08:14:44;6.38;;;3.08;;
51724;SDS011;37801;53.224;6.552;2023-05-21T08:17:10;7.70;;;3.50;;
51724;SDS011;37801;53.224;6.552;2023-05-21T08:19:37;6.95;;;3.97;;
51724;SDS011;37801;53.224;6.552;2023-05-21T08:22:03;6.78;;;3.17;;
51724;SDS011;37801;53.224;6.552;2023-05-21T08:24:30;6.93;;;3.67;;
51724;SDS011;37801;53.224;6.552;2023-05-21T08:26:57;9.35;;;3.78;;
51724;SDS011;37801;53.224;6.552;2023-05-21T08:29:23;8.13;;;3.85;;
51724;SDS011;37801;53.224;6.552;2023-05-21T08:31:49;8.57;;;3.78;;
51724;SDS011;37801;53.224;6.552;2023-05-21T08:34:15;8.20;;;3.60;;
51724;SDS011;37801;53.224;6.552;2023-05-21T08:36:42;7.28;;;3.20;;
51724;SDS011;37801;53.224;6.552;2023-05-21T08:39:10;6.32;;;3.60;;
51724;SDS011;37801;53.224;6.552;2023-05-21T08:41:37;7.55;;;3.80;;
51724;SDS011;37801;53.224;6.552;2023-05-21T08:44:04;7.47;;;3.60;;
51724;SDS011;37801;53.224;6.552;2023-05-21T08:46:35;6.63;;;3.22;;
51724;SDS011;37801;53.224;6.552;2023-05-21T08:49:03;5.75;;;3.22;;
51724;SDS011;37801;53.224;6.552;2023-05-21T08:51:30;7.97;;;3.38;;
51724;SDS011;37801;53.224;6.552;2023-05-21T08:53:56;8.57;;;3.38;;
51724;SDS011;37801;53.224;6.552;2023-05-21T08:56:22;8.50;;;3.35;;
51724;SDS011;37801;53.224;6.552;2023-05-21T08:58:50;7.00;;;3.30;;
51724;SDS011;37801;53.224;6.552;2023-05-21T09:01:16;6.18;;;3.63;;
51724;SDS011;37801;53.224;6.552;2023-05-21T09:03:43;8.95;;;3.83;;
51724;SDS011;37801;53.224;6.552;2023-05-21T09:06:11;7.75;;;3.53;;
51724;SDS011;37801;53.224;6.552;2023-05-21T09:08:44;8.30;;;3.55;;
51724;SDS011;37801;53.224;6.552;2023-05-21T09:11:10;7.30;;;3.45;;
51724;SDS011;37801;53.224;6.552;2023-05-21T09:13:37;7.43;;;3.55;;
51724;SDS011;37801;53.224;6.552;2023-05-21T09:16:03;8.00;;;3.28;;
51724;SDS011;37801;53.224;6.552;2023-05-21T09:18:30;7.65;;;3.10;;
51724;SDS011;37801;53.224;6.552;2023-05-21T09:20:57;7.03;;;3.50;;
51724;SDS011;37801;53.224;6.552;2023-05-21T09:23:24;6.45;;;3.10;;
51724;SDS011;37801;53.224;6.552;2023-05-21T09:25:53;6.18;;;3.72;;
51724;SDS011;37801;53.224;6.552;2023-05-21T09:28:19;8.18;;;3.30;;
51724;SDS011;37801;53.224;6.552;2023-05-21T09:30:46;9.27;;;3.28;;
51724;SDS011;37801;53.224;6.552;2023-05-21T09:33:23;7.72;;;3.97;;
51724;SDS011;37801;53.224;6.552;2023-05-21T09:35:50;8.38;;;3.55;;
51724;SDS011;37801;53.224;6.552;2023-05-21T09:38:16;7.82;;;3.30;;
51724;SDS011;37801;53.224;6.552;2023-05-21T09:40:43;6.20;;;3.22;;
51724;SDS011;37801;53.224;6.552;2023-05-21T09:43:12;8.68;;;3.47;;
51724;SDS011;37801;53.224;6.552;2023-05-21T09:45:39;8.90;;;2.88;;
51724;SDS011;37801;53.224;6.552;2023-05-21T09:48:14;6.90;;;3.20;;
51724;SDS011;37801;53.224;6.552;2023-05-21T09:50:41;6.63;;;3.00;;
51724;SDS011;37801;53.224;6.552;2023-05-21T09:53:10;6.65;;;3.38;;
51724;SDS011;37801;53.224;6.552;2023-05-21T09:55:40;6.70;;;3.13;;
51724;SDS011;37801;53.224;6.552;2023-05-21T09:58:07;8.55;;;3.10;;
51724;SDS011;37801;53.224;6.552;2023-05-21T10:00:35;8.60;;;3.67;;
51724;SDS011;37801;53.224;6.552;2023-05-21T10:03:02;6.28;;;2.80;;
51724;SDS011;37801;53.224;6.552;2023-05-21T10:05:30;5.80;;;3.33;;
51724;SDS011;37801;53.224;6.552;2023-05-21T10:08:02;6.18;;;3.00;;
51724;SDS011;37801;53.224;6.552;2023-05-21T10:10:29;7.75;;;3.83;;
51724;SDS011;37801;53.224;6.552;2023-05-21T10:13:05;7.88;;;3.20;;
51724;SDS011;37801;53.224;6.552;2023-05-21T10:15:34;5.35;;;3.13;;
51724;SDS011;37801;53.224;6.552;2023-05-21T10:18:03;7.43;;;3.45;;
51724;SDS011;37801;53.224;6.552;2023-05-21T10:20:30;7.70;;;3.10;;
51724;SDS011;37801;53.224;6.552;2023-05-21T10:22:57;6.30;;;3.40;;
51724;SDS011;37801;53.224;6.552;2023-05-21T10:25:24;7.45;;;2.95;;
51724;SDS011;37801;53.224;6.552;2023-05-21T10:27:51;7.00;;;3.03;;
51724;SDS011;37801;53.224;6.552;2023-05-21T10:30:19;9.18;;;3.50;;
51724;SDS011;37801;53.224;6.552;2023-05-21T10:32:49;8.43;;;2.97;;
51724;SDS011;37801;53.224;6.552;2023-05-21T10:35:16;6.60;;;2.88;;
51724;SDS011;37801;53.224;6.552;2023-05-21T10:37:42;7.10;;;2.67;;
51724;SDS011;37801;53.224;6.552;2023-05-21T10:40:09;8.85;;;2.80;;
51724;SDS011;37801;53.224;6.552;2023-05-21T10:47:51;7.45;;;3.38;;
51724;SDS011;37801;53.224;6.552;2023-05-21T10:50:42;5.18;;;3.10;;
51724;SDS011;37801;53.224;6.552;2023-05-21T10:58:15;7.63;;;3.10;;
51724;SDS011;37801;53.224;6.552;2023-05-21T11:00:46;7.47;;;3.70;;
51724;SDS011;37801;53.224;6.552;2023-05-21T11:03:12;7.03;;;3.10;;
51724;SDS011;37801;53.224;6.552;2023-05-21T11:06:01;6.88;;;3.50;;
51724;SDS011;37801;53.224;6.552;2023-05-21T11:08:26;9.75;;;3.65;;
51724;SDS011;37801;53.224;6.552;2023-05-21T11:10:56;7.70;;;3.42;;
51724;SDS011;37801;53.224;6.552;2023-05-21T11:13:23;11.70;;;4.20;;
51724;SDS011;37801;53.224;6.552;2023-05-21T11:19:14;10.18;;;3.60;;
51724;SDS011;37801;53.224;6.552;2023-05-21T11:21:09;7.22;;;3.90;;
51724;SDS011;37801;53.224;6.552;2023-05-21T11:26:23;8.60;;;3.75;;
51724;SDS011;37801;53.224;6.552;2023-05-21T11:29:09;11.82;;;4.07;;
51724;SDS011;37801;53.224;6.552;2023-05-21T11:31:35;8.02;;;4.63;;
51724;SDS011;37801;53.224;6.552;2023-05-21T11:36:40;8.48;;;4.22;;
51724;SDS011;37801;53.224;6.552;2023-05-21T11:39:07;8.43;;;4.38;;
51724;SDS011;37801;53.224;6.552;2023-05-21T11:41:50;9.05;;;4.50;;
51724;SDS011;37801;53.224;6.552;2023-05-21T11:44:17;8.27;;;4.70;;
51724;SDS011;37801;53.224;6.552;2023-05-21T11:46:43;8.70;;;4.47;;
51724;SDS011;37801;53.224;6.552;2023-05-21T11:49:09;8.90;;;4.80;;
51724;SDS011;37801;53.224;6.552;2023-05-21T11:51:35;10.48;;;4.85;;
51724;SDS011;37801;53.224;6.552;2023-05-21T11:54:02;9.65;;;4.55;;
51724;SDS011;37801;53.224;6.552;2023-05-21T11:56:28;10.35;;;4.60;;
51724;SDS011;37801;53.224;6.552;2023-05-21T11:58:56;9.43;;;4.80;;
51724;SDS011;37801;53.224;6.552;2023-05-21T12:01:22;9.75;;;5.15;;
51724;SDS011;37801;53.224;6.552;2023-05-21T12:03:49;8.88;;;4.75;;
51724;SDS011;37801;53.224;6.552;2023-05-21T12:06:15;10.63;;;4.80;;
51724;SDS011;37801;53.224;6.552;2023-05-21T12:08:49;8.80;;;5.20;;
51724;SDS011;37801;53.224;6.552;2023-05-21T12:11:16;7.75;;;4.75;;
51724;SDS011;37801;53.224;6.552;2023-05-21T12:13:42;7.82;;;4.88;;
51724;SDS011;37801;53.224;6.552;2023-05-21T12:16:09;10.02;;;5.53;;
51724;SDS011;37801;53.224;6.552;2023-05-21T12:18:35;9.00;;;5.20;;
51724;SDS011;37801;53.224;6.552;2023-05-21T12:21:01;13.13;;;6.30;;
51724;SDS011;37801;53.224;6.552;2023-05-21T12:23:27;11.35;;;6.55;;
51724;SDS011;37801;53.224;6.552;2023-05-21T12:25:55;9.75;;;6.43;;
51724;SDS011;37801;53.224;6.552;2023-05-21T12:28:21;11.15;;;7.18;;
51724;SDS011;37801;53.224;6.552;2023-05-21T12:30:48;9.75;;;6.78;;
51724;SDS011;37801;53.224;6.552;2023-05-21T12:33:15;13.07;;;7.03;;
51724;SDS011;37801;53.224;6.552;2023-05-21T12:35:44;11.95;;;6.97;;
51724;SDS011;37801;53.224;6.552;2023-05-21T12:38:13;12.85;;;7.65;;
51724;SDS011;37801;53.224;6.552;2023-05-21T12:40:40;12.27;;;7.10;;
51724;SDS011;37801;53.224;6.552;2023-05-21T12:43:08;13.73;;;6.85;;
51724;SDS011;37801;53.224;6.552;2023-05-21T12:45:34;11.63;;;6.38;;
51724;SDS011;37801;53.224;6.552;2023-05-21T12:48:03;11.95;;;7.03;;
51724;SDS011;37801;53.224;6.552;2023-05-21T12:50:30;11.25;;;7.20;;
51724;SDS011;37801;53.224;6.552;2023-05-21T12:52:57;15.27;;;6.97;;
51724;SDS011;37801;53.224;6.552;2023-05-21T12:55:24;12.40;;;7.25;;
51724;SDS011;37801;53.224;6.552;2023-05-21T12:57:58;11.07;;;6.85;;
51724;SDS011;37801;53.224;6.552;2023-05-21T13:00:24;12.07;;;7.10;;
51724;SDS011;37801;53.224;6.552;2023-05-21T13:02:50;11.32;;;7.05;;
51724;SDS011;37801;53.224;6.552;2023-05-21T13:05:17;12.10;;;7.60;;
51724;SDS011;37801;53.224;6.552;2023-05-21T13:07:43;15.07;;;6.90;;
51724;SDS011;37801;53.224;6.552;2023-05-21T13:10:13;13.23;;;7.05;;
51724;SDS011;37801;53.224;6.552;2023-05-21T13:12:40;16.85;;;7.95;;
51724;SDS011;37801;53.224;6.552;2023-05-21T13:15:06;10.73;;;7.35;;
51724;SDS011;37801;53.224;6.552;2023-05-21T13:17:33;14.43;;;7.45;;
51724;SDS011;37801;53.224;6.552;2023-05-21T13:20:06;13.70;;;8.20;;
51724;SDS011;37801;53.224;6.552;2023-05-21T13:22:33;12.15;;;7.97;;
51724;SDS011;37801;53.224;6.552;2023-05-21T13:25:02;12.35;;;7.72;;
51724;SDS011;37801;53.224;6.552;2023-05-21T13:27:29;15.90;;;7.93;;
51724;SDS011;37801;53.224;6.552;2023-05-21T13:29:55;14.75;;;8.45;;
51724;SDS011;37801;53.224;6.552;2023-05-21T13:32:21;13.07;;;8.05;;
51724;SDS011;37801;53.224;6.552;2023-05-21T13:34:47;12.73;;;7.53;;
51724;SDS011;37801;53.224;6.552;2023-05-21T13:37:13;14.25;;;8.63;;
51724;SDS011;37801;53.224;6.552;2023-05-21T13:39:40;13.73;;;8.68;;
51724;SDS011;37801;53.224;6.552;2023-05-21T13:42:06;15.40;;;9.15;;
51724;SDS011;37801;53.224;6.552;2023-05-21T13:44:32;12.65;;;8.30;;
51724;SDS011;37801;53.224;6.552;2023-05-21T13:47:04;16.90;;;8.57;;
51724;SDS011;37801;53.224;6.552;2023-05-21T13:49:31;11.95;;;8.48;;
51724;SDS011;37801;53.224;6.552;2023-05-21T13:51:58;16.30;;;9.43;;
51724;SDS011;37801;53.224;6.552;2023-05-21T13:54:25;14.63;;;8.95;;
51724;SDS011;37801;53.224;6.552;2023-05-21T13:56:51;13.82;;;9.70;;
51724;SDS011;37801;53.224;6.552;2023-05-21T13:59:17;12.88;;;8.70;;
51724;SDS011;37801;53.224;6.552;2023-05-21T14:01:43;19.15;;;10.05;;
51724;SDS011;37801;53.224;6.552;2023-05-21T14:04:10;16.13;;;9.32;;
51724;SDS011;37801;53.224;6.552;2023-05-21T14:06:36;18.45;;;9.48;;
51724;SDS011;37801;53.224;6.552;2023-05-21T14:09:03;13.75;;;9.02;;
51724;SDS011;37801;53.224;6.552;2023-05-21T14:11:29;15.75;;;9.13;;
51724;SDS011;37801;53.224;6.552;2023-05-21T14:13:56;15.60;;;9.63;;
51724;SDS011;37801;53.224;6.552;2023-05-21T14:16:23;14.30;;;9.68;;
51724;SDS011;37801;53.224;6.552;2023-05-21T14:18:51;13.52;;;8.85;;
51724;SDS011;37801;53.224;6.552;2023-05-21T14:21:17;16.98;;;9.30;;
51724;SDS011;37801;53.224;6.552;2023-05-21T14:23:44;15.27;;;8.52;;
51724;SDS011;37801;53.224;6.552;2023-05-21T14:26:10;17.27;;;9.13;;
51724;SDS011;37801;53.224;6.552;2023-05-21T14:28:36;11.88;;;7.95;;
51724;SDS011;37801;53.224;6.552;2023-05-21T14:31:02;15.95;;;9.60;;
51724;SDS011;37801;53.224;6.552;2023-05-21T14:33:31;12.23;;;8.60;;
51724;SDS011;37801;53.224;6.552;2023-05-21T14:35:59;19.60;;;9.77;;
51724;SDS011;37801;53.224;6.552;2023-05-21T14:38:25;16.90;;;10.55;;
51724;SDS011;37801;53.224;6.552;2023-05-21T14:40:52;14.07;;;8.77;;
51724;SDS011;37801;53.224;6.552;2023-05-21T14:43:18;14.88;;;9.70;;
51724;SDS011;37801;53.224;6.552;2023-05-21T14:45:44;16.33;;;10.30;;
51724;SDS011;37801;53.224;6.552;2023-05-21T14:48:10;18.33;;;10.80;;
51724;SDS011;37801;53.224;6.552;2023-05-21T14:50:37;16.02;;;11.32;;
51724;SDS011;37801;53.224;6.552;2023-05-21T14:53:07;18.02;;;11.23;;
51724;SDS011;37801;53.224;6.552;2023-05-21T14:55:33;14.20;;;9.70;;
51724;SDS011;37801;53.224;6.552;2023-05-21T14:58:00;15.88;;;10.05;;
51724;SDS011;37801;53.224;6.552;2023-05-21T15:00:27;17.92;;;10.75;;